METAR Data
IDs: Format: Raw Decoded Include TAF

Data at: 1059 UTC 16 Feb 2019

PASO 161053Z AUTO 00000KT 10SM OVC048 M03/M09 A3010 RMK AO2 SLP194 T10331094 TSNO
PASO 160953Z AUTO 00000KT 10SM OVC050 M04/M10 A3009 RMK AO2 SLP190 T10391100 TSNO
PASO 160853Z AUTO 00000KT 10SM OVC055 M04/M10 A3009 RMK AO2 SLP188 T10441100 410171078 50012 TSNO
PASO 160753Z AUTO 00000KT 10SM CLR M06/M11 A3009 RMK AO2 SLP188 T10561106 TSNO
PASO 160653Z AUTO 00000KT 9SM CLR M06/M11 A3008 RMK AO2 SLP185 T10561111 TSNO
PASO 160553Z AUTO 00000KT 10SM CLR M06/M12 A3005 RMK AO2 SLP176 T10561117 11017 21056 53010 TSNO
PASO 160453Z AUTO 00000KT 10SM CLR M04/M12 A3004 RMK AO2 SLP172 T10441117 TSNO
PASO 160353Z AUTO 36007KT 10SM CLR M03/M12 A3003 RMK AO2 SLP168 T10281117 TSNO
PASO 160253Z AUTO 35005KT 10SM CLR M02/M13 A3002 RMK AO2 SLP166 T10221133 55006 TSNO
PASO 160153Z AUTO 10SM CLR M02/M14 A3002 RMK AO2 SLP165 T10221139 TSNO
PASO 160053Z AUTO 36007KT 10SM CLR M02/M14 A3004 RMK AO2 SLP171 T10221139 TSNO
PASO 152353Z AUTO 36007KT 10SM CLR M02/M15 A3004 RMK AO2 SLP172 T10221150 11017 21078 53005 TSNO
PASO 152253Z AUTO VRB05KT 10SM CLR M02/M13 A3002 RMK AO2 SLP166 T10221133 TSNO
PASO 152153Z AUTO 36006KT 10SM CLR M02/M11 A3003 RMK AO2 SLP171 T10221111 TSNO
PASO 152053Z AUTO VRB05KT 10SM CLR M03/M13 A3002 RMK AO2 SLP167 T10331133 52006 TSNO
PASO 151953Z AUTO VRB04KT 10SM CLR M04/M14 A3002 RMK AO2 SLP166 T10391144 TSNO
PASO 151853Z AUTO 00000KT 10SM CLR M08/M13 A3001 RMK AO2 SLP161 T10781133 TSNO
PASO 151753Z AUTO 00000KT 10SM CLR M07/M13 A3001 RMK AO2 SLP161 T10721133 11050 21072 53004 TSNO
PASO 151653Z AUTO 02003KT 10SM CLR M06/M12 A3000 RMK AO2 SLP160 T10611122 TSNO
PASO 151553Z AUTO VRB05KT 10SM CLR M06/M13 A2998 RMK AO2 SLP152 T10561128 TSNO
PASO 151453Z AUTO 36007KT 10SM CLR M06/M13 A2999 RMK AO2 SLP157 T10561133 56003 TSNO
PASO 151353Z AUTO 01007KT 10SM CLR M05/M13 A3000 RMK AO2 SLP158 T10501133 TSNO
PASO 151253Z AUTO 36006KT 10SM CLR M06/M16 A3000 RMK AO2 SLP158 T10561156 TSNO
PASO 151153Z AUTO 01006KT 10SM CLR M06/M14 A3000 RMK AO2 SLP160 T10561144 11039 21061 53013 TSNO
PASO 151053Z AUTO 01005KT 10SM CLR M06/M14 A2999 RMK AO2 SLP156 T10561144 TSNO
PASO 150953Z AUTO 36006KT 10SM CLR M05/M13 A2997 RMK AO2 SLP150 T10501133 TSNO
PASO 150853Z AUTO 34006KT 10SM BKN120 M05/M14 A2996 RMK AO2 SLP147 T10501139 410331061 58006 TSNO
PASO 150753Z AUTO 35006KT 10SM OVC110 M04/M16 A2998 RMK AO2 SLP152 T10441156 TSNO
PASO 150653Z AUTO 01007KT 10SM OVC090 M04/M13 A2999 RMK AO2 SLP156 T10391128 TSNO
PASO 150553Z AUTO 03005KT 10SM CLR M05/M14 A2998 RMK AO2 SLP153 T10501139 11039 21061 56012 TSNO
PASO 150453Z AUTO VRB03KT 10SM CLR M05/M16 A2999 RMK AO2 SLP157 T10501161 TSNO
PASO 150353Z AUTO 01008KT 10SM CLR M04/M17 A3000 RMK AO2 SLP160 T10441167 TSNO
PASO 150253Z AUTO 02009KT 10SM CLR M04/M13 A3002 RMK AO2 SLP165 T10391133 55015 TSNO
PASO 150153Z AUTO VRB06KT 10SM CLR M04/M15 A2998 RMK AO2 SLP152 T10391150 TSNO
PASO 150053Z AUTO 01011G16KT 10SM CLR M04/M14 A3001 RMK AO2 SLP162 T10391144 TSNO
PASO 142353Z AUTO 36012G16KT 10SM CLR M04/M16 A3006 RMK AO2 SLP180 T10391161 11033 21056 50000 TSNO